createdAt,value
2019-05-02T00:00:52.198Z,98334.45
2019-05-02T00:03:22.200Z,98336.67
2019-05-02T00:05:50.499Z,98334.45
2019-05-02T00:08:18.917Z,98333.60
2019-05-02T00:10:48.257Z,98335.40
2019-05-02T00:13:17.489Z,98327.48
2019-05-02T00:15:45.727Z,98323.16
2019-05-02T00:18:14.873Z,98323.16
2019-05-02T00:20:43.115Z,98324.09
2019-05-02T00:23:11.460Z,98325.42
2019-05-02T00:25:39.929Z,98321.92
2019-05-02T00:28:12.514Z,98321.50
2019-05-02T00:30:38.163Z,98318.86
2019-05-02T00:33:06.605Z,98312.29
2019-05-02T00:35:34.884Z,98317.11
2019-05-02T00:38:03.891Z,98310.98
2019-05-02T00:40:32.381Z,98316.27
2019-05-02T00:43:00.621Z,98311.41
2019-05-02T00:45:29.082Z,98310.06
2019-05-02T00:48:04.896Z,98312.27
2019-05-02T00:50:40.261Z,98308.77
2019-05-02T00:53:12.019Z,98305.23
2019-05-02T00:55:37.417Z,98307.86
2019-05-02T00:58:05.652Z,98302.11
2019-05-02T01:00:35.564Z,98298.55
2019-05-02T01:03:03.871Z,98301.64
2019-05-02T01:05:33.828Z,98297.73
2019-05-02T01:08:02.995Z,98294.16
2019-05-02T01:10:31.340Z,98293.30
2019-05-02T01:12:59.628Z,98287.13
2019-05-02T01:15:28.077Z,98291.07
2019-05-02T01:17:56.534Z,98291.07
2019-05-02T01:20:27.666Z,98285.36
2019-05-02T01:22:54.931Z,98284.88
2019-05-02T01:25:23.134Z,98284.43
2019-05-02T01:28:12.720Z,98282.23
2019-05-02T01:30:43.835Z,98275.58
2019-05-02T01:33:13.904Z,98275.11
2019-05-02T01:35:49.594Z,98272.95
2019-05-02T01:38:19.529Z,98269.89
2019-05-02T01:40:53.101Z,98267.64
2019-05-02T01:43:25.617Z,98271.11
2019-05-02T01:45:53.977Z,98266.66
2019-05-02T01:48:22.266Z,98267.55
2019-05-02T01:50:50.498Z,98258.31
2019-05-02T01:53:18.739Z,98266.57
2019-05-02T01:55:47.013Z,98260.84
2019-05-02T01:58:20.727Z,98258.19
2019-05-02T02:00:46.009Z,98254.19
2019-05-02T02:03:14.278Z,98249.30
2019-05-02T02:05:42.819Z,98243.98
2019-05-02T02:08:11.052Z,98239.63
2019-05-02T02:10:39.331Z,98236.53
2019-05-02T02:13:07.557Z,98237.88
2019-05-02T02:15:35.843Z,98239.19
2019-05-02T02:18:04.245Z,98232.59
2019-05-02T02:20:50.205Z,98231.67
2019-05-02T02:23:22.938Z,98233.89
2019-05-02T02:25:52.849Z,98234.77
2019-05-02T02:28:21.073Z,98230.38
2019-05-02T02:30:49.348Z,98237.00
2019-05-02T02:33:17.590Z,98232.56
2019-05-02T02:35:50.643Z,98232.13
2019-05-02T02:38:15.885Z,98229.94
2019-05-02T02:40:44.126Z,98232.59
2019-05-02T02:43:32.419Z,98223.39
2019-05-02T02:45:51.977Z,98223.32
2019-05-02T02:48:18.320Z,98226.41
2019-05-02T02:50:46.547Z,98221.57
2019-05-02T02:53:18.343Z,98215.86
2019-05-02T02:55:46.534Z,98222.06
2019-05-02T02:58:14.871Z,98218.09
2019-05-02T03:00:47.716Z,98217.27
2019-05-02T03:03:13.059Z,98210.68
2019-05-02T03:05:41.294Z,98217.70
2019-05-02T03:08:09.585Z,98218.98
2019-05-02T03:10:39.986Z,98217.75
2019-05-02T03:13:27.694Z,98210.77
2019-05-02T03:16:07.084Z,98208.58
2019-05-02T03:18:40.455Z,98201.60
2019-05-02T03:21:03.725Z,98204.29
2019-05-02T03:23:32.056Z,98208.73
2019-05-02T03:26:00.305Z,98203.52
2019-05-02T03:28:28.580Z,98200.91
2019-05-02T03:30:57.013Z,98207.96
2019-05-02T03:33:25.276Z,98204.47
2019-05-02T03:35:53.737Z,98199.14
2019-05-02T03:38:31.457Z,98192.55
2019-05-02T03:40:52.070Z,98195.66
2019-05-02T03:43:25.578Z,98183.33
2019-05-02T03:45:50.576Z,98189.45
2019-05-02T03:48:25.856Z,98181.58
2019-05-02T03:50:49.214Z,98187.25
2019-05-02T03:53:24.758Z,98189.04
2019-05-02T03:55:47.645Z,98193.38
2019-05-02T03:58:17.043Z,98197.41
2019-05-02T04:00:45.840Z,98185.52
2019-05-02T04:03:14.841Z,98196.97
2019-05-02T04:05:43.122Z,98193.92
2019-05-02T04:08:20.073Z,98193.05
2019-05-02T04:10:52.761Z,98186.51
2019-05-02T04:13:17.321Z,98185.20
2019-05-02T04:15:45.965Z,98187.43
2019-05-02T04:18:15.481Z,98187.45
2019-05-02T04:20:49.510Z,98186.59
2019-05-02T04:23:14.182Z,98186.59
2019-05-02T04:25:42.458Z,98187.05
2019-05-02T04:28:11.920Z,98191.05
2019-05-02T04:30:45.193Z,98195.42
2019-05-02T04:33:10.670Z,98194.54
2019-05-02T04:35:39.054Z,98195.84
2019-05-02T04:38:19.011Z,98198.94
2019-05-02T04:40:41.803Z,98198.95
2019-05-02T04:43:11.091Z,98196.30
2019-05-02T04:45:51.936Z,98198.94
2019-05-02T04:48:08.459Z,98199.36
2019-05-02T04:50:37.877Z,98207.72
2019-05-02T04:53:08.579Z,98205.08
2019-05-02T04:55:38.126Z,98205.88
2019-05-02T04:58:08.408Z,98208.52
2019-05-02T05:00:38.930Z,98209.41
2019-05-02T05:03:15.190Z,98205.97
2019-05-02T05:05:40.027Z,98206.39
2019-05-02T05:08:07.744Z,98210.36
2019-05-02T05:10:41.387Z,98209.41
2019-05-02T05:13:07.768Z,98210.72
2019-05-02T05:15:44.575Z,98205.44
2019-05-02T05:18:10.508Z,98205.39
2019-05-02T05:20:38.482Z,98199.30
2019-05-02T05:23:08.102Z,98201.52
2019-05-02T05:25:38.005Z,98201.52
2019-05-02T05:28:08.850Z,98209.88
2019-05-02T05:30:37.714Z,98200.67
2019-05-02T05:33:07.582Z,98210.80
2019-05-02T05:35:38.406Z,98211.66
2019-05-02T05:38:07.759Z,98216.03
2019-05-02T05:40:37.634Z,98213.77
2019-05-02T05:43:13.638Z,98215.51
2019-05-02T05:45:50.298Z,98211.56
2019-05-02T05:48:08.147Z,98211.56
2019-05-02T05:50:39.872Z,98220.41
2019-05-02T05:53:07.955Z,98207.22
2019-05-02T05:55:38.219Z,98211.16
2019-05-02T05:58:14.648Z,98204.16
2019-05-02T06:00:38.000Z,98201.04
2019-05-02T06:03:11.541Z,98202.36
2019-05-02T06:05:40.494Z,98202.73
2019-05-02T06:08:08.195Z,98204.05
2019-05-02T06:10:39.042Z,98203.16
2019-05-02T06:13:11.111Z,98192.63
2019-05-02T06:15:39.090Z,98201.05
2019-05-02T06:18:06.459Z,98200.14
2019-05-02T06:20:34.696Z,98197.53
2019-05-02T06:23:02.955Z,98194.87
2019-05-02T06:25:34.140Z,98188.24
2019-05-02T06:28:05.314Z,98185.52
2019-05-02T06:30:32.273Z,98193.44
2019-05-02T06:33:00.835Z,98184.65
2019-05-02T06:35:29.070Z,98174.42
2019-05-02T06:37:57.547Z,98183.22
2019-05-02T06:40:25.899Z,98183.95
2019-05-02T06:42:54.194Z,98178.11
2019-05-02T06:45:22.650Z,98170.61
2019-05-02T06:47:50.949Z,98179.92
2019-05-02T06:50:19.184Z,98177.35
2019-05-02T06:52:47.464Z,98179.92
2019-05-02T06:55:15.696Z,98179.08
2019-05-02T06:57:43.932Z,98175.60
2019-05-02T07:00:12.346Z,98180.81
2019-05-02T07:02:40.582Z,98178.31
2019-05-02T07:05:09.012Z,98173.89
2019-05-02T07:07:37.565Z,98176.86
2019-05-02T07:10:07.658Z,98175.60
2019-05-02T07:12:35.867Z,98173.89
2019-05-02T07:15:08.377Z,98169.39
2019-05-02T07:17:43.995Z,98163.27
2019-05-02T07:20:12.247Z,98169.00
2019-05-02T07:22:40.939Z,98163.25
2019-05-02T07:25:09.414Z,98151.69
2019-05-02T07:27:39.190Z,98156.13
2019-05-02T07:30:07.722Z,98157.28
2019-05-02T07:32:36.026Z,98157.82
2019-05-02T07:35:06.236Z,98155.20
2019-05-02T07:37:34.468Z,98156.93
2019-05-02T07:40:02.875Z,98158.60
2019-05-02T07:42:31.111Z,98149.80
2019-05-02T07:44:59.471Z,98150.98
2019-05-02T07:47:28.905Z,98153.53
2019-05-02T07:49:57.462Z,98153.62
2019-05-02T07:52:28.943Z,98145.22
2019-05-02T07:54:56.172Z,98150.44
2019-05-02T07:57:30.510Z,98146.39
2019-05-02T08:00:00.427Z,98147.33
2019-05-02T08:02:26.433Z,98152.88
2019-05-02T08:04:54.755Z,98155.73
2019-05-02T08:07:25.892Z,98161.94
2019-05-02T08:09:53.343Z,98156.16
2019-05-02T08:12:21.647Z,98157.88
2019-05-02T08:14:49.890Z,98159.70
2019-05-02T08:17:19.342Z,98161.62
2019-05-02T08:19:47.788Z,98158.27
2019-05-02T08:22:16.098Z,98161.08
2019-05-02T08:24:44.398Z,98158.63
2019-05-02T08:27:23.353Z,98164.84
2019-05-02T08:29:52.981Z,98162.69
2019-05-02T08:32:21.282Z,98166.66
2019-05-02T08:34:51.665Z,98165.30
2019-05-02T08:37:19.534Z,98162.55
2019-05-02T08:39:47.774Z,98167.81
2019-05-02T08:42:16.074Z,98165.64
2019-05-02T08:44:51.179Z,98161.30
2019-05-02T08:47:19.013Z,98165.47
2019-05-02T08:49:44.284Z,98164.13
2019-05-02T08:52:12.518Z,98162.75
2019-05-02T08:54:40.802Z,98163.83
2019-05-02T08:57:09.055Z,98161.31
2019-05-02T08:59:37.322Z,98169.63
2019-05-02T09:02:05.565Z,98170.18
2019-05-02T09:04:33.871Z,98168.93
2019-05-02T09:07:02.251Z,98169.36
2019-05-02T09:09:30.554Z,98166.84
2019-05-02T09:12:09.679Z,98172.92
2019-05-02T09:14:28.810Z,98174.65
2019-05-02T09:17:00.383Z,98166.66
2019-05-02T09:19:27.055Z,98172.48
2019-05-02T09:21:55.287Z,98180.39
2019-05-02T09:24:23.999Z,98179.61
2019-05-02T09:26:52.405Z,98174.17
2019-05-02T09:29:22.262Z,98176.20
2019-05-02T09:31:52.524Z,98180.55
2019-05-02T09:34:22.682Z,98183.65
2019-05-02T09:36:52.770Z,98174.58
2019-05-02T09:39:22.698Z,98182.05
2019-05-02T09:41:52.733Z,98176.73
2019-05-02T09:44:22.356Z,98175.64
2019-05-02T09:46:53.054Z,98175.61
2019-05-02T09:49:22.027Z,98177.12
2019-05-02T09:51:59.336Z,98180.89
2019-05-02T09:54:23.088Z,98177.07
2019-05-02T09:56:52.329Z,98179.55
2019-05-02T09:59:29.256Z,98179.92
2019-05-02T10:01:52.810Z,98175.26
2019-05-02T10:04:22.410Z,98175.66
2019-05-02T10:06:52.477Z,98180.53
2019-05-02T10:09:24.298Z,98175.02
2019-05-02T10:11:52.460Z,98178.05
2019-05-02T10:14:22.653Z,98176.88
2019-05-02T10:16:52.969Z,98169.88
2019-05-02T10:19:25.482Z,98167.88
2019-05-02T10:21:54.308Z,98170.08
2019-05-02T10:24:22.168Z,98165.45
2019-05-02T10:26:55.225Z,98165.66
2019-05-02T10:29:28.116Z,98167.42
2019-05-02T10:31:52.645Z,98167.05
2019-05-02T10:34:22.598Z,98166.89
2019-05-02T10:36:51.935Z,98167.59
2019-05-02T10:39:23.166Z,98164.61
2019-05-02T10:41:52.608Z,98150.35
2019-05-02T10:44:22.568Z,98146.73
2019-05-02T10:46:58.374Z,98149.13
2019-05-02T10:49:42.479Z,98147.05
2019-05-02T10:52:12.260Z,98144.13
2019-05-02T10:54:42.157Z,98131.36
2019-05-02T10:57:12.556Z,98134.79
2019-05-02T10:59:42.058Z,98128.55
2019-05-02T11:02:12.882Z,98138.61
2019-05-02T11:04:52.438Z,98123.77
2019-05-02T11:07:22.603Z,98125.23
2019-05-02T11:09:52.528Z,98126.05
2019-05-02T11:12:40.652Z,98116.48
2019-05-02T11:15:12.746Z,98115.36
2019-05-02T11:17:42.392Z,98118.91
2019-05-02T11:20:12.373Z,98114.20
2019-05-02T11:22:42.654Z,98111.75
2019-05-02T11:25:12.058Z,98118.13
2019-05-02T11:27:41.852Z,98106.94
2019-05-02T11:30:12.114Z,98113.78
2019-05-02T11:32:41.700Z,98111.18
2019-05-02T11:35:12.058Z,98090.59
2019-05-02T11:37:42.106Z,98099.83
2019-05-02T11:40:12.690Z,98096.86
2019-05-02T11:42:41.623Z,98097.00
2019-05-02T11:45:11.957Z,98090.76
2019-05-02T11:47:42.163Z,98096.25
2019-05-02T11:50:11.781Z,98096.63
2019-05-02T11:52:39.943Z,98089.11
2019-05-02T11:55:08.228Z,98091.76
2019-05-02T11:57:36.486Z,98091.73
2019-05-02T12:00:09.020Z,98095.47
2019-05-02T12:02:41.862Z,98088.41
2019-05-02T12:05:14.880Z,98080.87
2019-05-02T12:07:43.130Z,98084.88
2019-05-02T12:10:12.545Z,98082.81
2019-05-02T12:12:42.841Z,98092.36
2019-05-02T12:15:11.980Z,98086.22
2019-05-02T12:17:41.972Z,98081.55
2019-05-02T12:20:11.859Z,98078.86
2019-05-02T12:22:41.965Z,98081.72
2019-05-02T12:25:12.473Z,98074.64
2019-05-02T12:27:42.384Z,98072.53
2019-05-02T12:30:11.795Z,98068.13
2019-05-02T12:32:42.221Z,98064.19
2019-05-02T12:35:11.849Z,98058.73
2019-05-02T12:37:42.264Z,98053.78
2019-05-02T12:40:12.238Z,98054.98
2019-05-02T12:42:41.879Z,98060.03
2019-05-02T12:45:12.188Z,98048.88
2019-05-02T12:47:40.367Z,98042.09
2019-05-02T12:50:08.608Z,98040.98
2019-05-02T12:52:36.852Z,98048.48
2019-05-02T12:55:06.676Z,98047.12
2019-05-02T12:57:34.925Z,98047.16
2019-05-02T13:00:04.712Z,98052.49
2019-05-02T13:02:37.396Z,98032.14
2019-05-02T13:05:06.607Z,98048.91
2019-05-02T13:07:34.855Z,98037.73
2019-05-02T13:10:03.700Z,98036.83
2019-05-02T13:12:33.588Z,98035.66
2019-05-02T13:15:02.306Z,98034.98
2019-05-02T13:17:30.734Z,98026.36
2019-05-02T13:20:03.106Z,98027.09
2019-05-02T13:22:36.694Z,98027.17
2019-05-02T13:25:10.374Z,98021.44
2019-05-02T13:27:44.372Z,98018.11
2019-05-02T13:30:09.658Z,98017.60
2019-05-02T13:32:39.358Z,98021.18
2019-05-02T13:35:12.847Z,98014.03
2019-05-02T13:37:42.468Z,98009.84
2019-05-02T13:40:12.596Z,98007.20
2019-05-02T13:42:41.818Z,98013.36
2019-05-02T13:45:12.704Z,98008.74
2019-05-02T13:47:42.621Z,97997.09
2019-05-02T13:50:12.869Z,98001.73
2019-05-02T13:52:45.265Z,97999.94
2019-05-02T13:55:12.618Z,97999.48
2019-05-02T13:57:43.117Z,97994.11
2019-05-02T14:00:12.772Z,97990.91
2019-05-02T14:02:42.661Z,97992.23
2019-05-02T14:05:13.947Z,97993.45
2019-05-02T14:08:01.716Z,97989.56
2019-05-02T14:10:39.215Z,97985.62
2019-05-02T14:13:07.542Z,97969.47
2019-05-02T14:15:41.920Z,97970.81
2019-05-02T14:18:09.937Z,97974.97
2019-05-02T14:20:38.183Z,97962.49
2019-05-02T14:23:06.547Z,97964.63
2019-05-02T14:25:34.788Z,97967.22
2019-05-02T14:28:03.183Z,97964.97
2019-05-02T14:30:37.150Z,97967.50
2019-05-02T14:33:02.999Z,97961.44
2019-05-02T14:35:34.625Z,97954.88
2019-05-02T14:38:15.896Z,97953.27
2019-05-02T14:40:59.622Z,97943.94
2019-05-02T14:43:47.839Z,97938.16
2019-05-02T14:46:17.983Z,97936.24
2019-05-02T14:48:47.058Z,97931.61
2019-05-02T14:51:16.695Z,97922.48
2019-05-02T14:53:45.262Z,97923.87
2019-05-02T14:56:22.772Z,97921.46
2019-05-02T14:58:52.807Z,97917.14
2019-05-02T15:01:22.563Z,97914.59
2019-05-02T15:03:58.473Z,97919.06
2019-05-02T15:06:27.011Z,97909.84
2019-05-02T15:12:03.042Z,97901.09
2019-05-02T15:14:33.065Z,97895.15
2019-05-02T15:17:02.544Z,97899.84
2019-05-02T15:19:32.914Z,97900.13
2019-05-02T15:22:02.131Z,97883.93
2019-05-02T15:24:33.263Z,97898.91
2019-05-02T15:27:05.491Z,97891.39
2019-05-02T15:29:32.188Z,97892.88
2019-05-02T15:32:05.983Z,97892.67
2019-05-02T15:34:35.290Z,97895.03
2019-05-02T15:37:03.986Z,97899.55
2019-05-02T15:42:02.254Z,97885.95
2019-05-02T15:44:31.747Z,97882.06
2019-05-02T15:47:03.481Z,97883.50
2019-05-02T15:49:32.119Z,97883.56
2019-05-02T15:52:00.532Z,97881.06
2019-05-02T15:54:28.824Z,97883.77
2019-05-02T15:57:03.020Z,97883.27
2019-05-02T15:59:37.468Z,97881.23
2019-05-02T16:02:12.972Z,97880.00
2019-05-02T16:04:42.389Z,97878.32
2019-05-02T16:07:12.189Z,97879.70
2019-05-02T16:09:41.643Z,97884.22
2019-05-02T16:12:12.051Z,97883.03
2019-05-02T16:14:42.296Z,97876.95
2019-05-02T16:17:12.267Z,97873.88
2019-05-02T16:19:42.631Z,97874.34
2019-05-02T16:22:12.786Z,97874.82
2019-05-02T16:24:43.906Z,97874.92
2019-05-02T16:27:11.697Z,97873.08
2019-05-02T16:29:41.779Z,97875.84
2019-05-02T16:32:14.583Z,97874.97
2019-05-02T16:34:54.740Z,97873.59
2019-05-02T16:37:23.242Z,97872.16
2019-05-02T16:39:51.550Z,97865.75
2019-05-02T16:42:19.825Z,97867.44
2019-05-02T16:44:48.058Z,97864.72
2019-05-02T16:47:16.339Z,97862.00
2019-05-02T16:49:47.981Z,97863.91
2019-05-02T16:52:16.090Z,97868.92
2019-05-02T16:54:44.643Z,97865.45
2019-05-02T16:57:17.454Z,97858.45
2019-05-02T16:59:42.906Z,97860.95
2019-05-02T17:02:12.210Z,97866.12
2019-05-02T17:04:42.516Z,97870.42
2019-05-02T17:07:12.329Z,97872.59
2019-05-02T17:09:42.511Z,97867.14
2019-05-02T17:12:15.108Z,97881.63
2019-05-02T17:14:43.545Z,97876.49
2019-05-02T17:17:12.830Z,97882.89
2019-05-02T17:19:41.070Z,97884.80
2019-05-02T17:22:09.381Z,97890.81
2019-05-02T17:24:37.618Z,97879.28
2019-05-02T17:27:06.187Z,97887.66
2019-05-02T17:29:34.459Z,97892.72
2019-05-02T17:32:02.758Z,97900.42
2019-05-02T17:34:34.857Z,97907.33
2019-05-02T17:37:06.318Z,97903.50
2019-05-02T17:39:31.144Z,97913.92
2019-05-02T17:42:00.948Z,97907.48
2019-05-02T17:44:29.405Z,97906.20
2019-05-02T17:46:59.506Z,97902.41
2019-05-02T17:49:34.819Z,97901.08
2019-05-02T17:52:19.136Z,97900.73
2019-05-02T17:54:45.471Z,97904.89
2019-05-02T17:57:13.706Z,97898.30
2019-05-02T17:59:42.249Z,97909.73
2019-05-02T18:02:12.307Z,97908.94
2019-05-02T18:04:41.953Z,97905.10
2019-05-02T18:07:11.717Z,97907.78
2019-05-02T18:09:41.864Z,97915.31
2019-05-02T18:12:12.585Z,97905.20
2019-05-02T18:14:42.174Z,97909.62
2019-05-02T18:17:12.607Z,97912.70
2019-05-02T18:19:42.440Z,97910.53
2019-05-02T18:22:21.148Z,97911.51
2019-05-02T18:24:42.752Z,97912.03
2019-05-02T18:27:12.697Z,97913.42
2019-05-02T18:29:42.559Z,97911.74
2019-05-02T18:32:12.647Z,97914.94
2019-05-02T18:34:41.772Z,97917.58
2019-05-02T18:37:10.522Z,97920.33
2019-05-02T18:39:44.663Z,97915.45
2019-05-02T18:42:08.910Z,97924.30
2019-05-02T18:44:37.204Z,97918.58
2019-05-02T18:47:07.240Z,97919.91
2019-05-02T18:49:35.570Z,97918.09
2019-05-02T18:52:03.883Z,97917.27
2019-05-02T18:54:33.800Z,97919.06
2019-05-02T18:57:02.515Z,97920.75
2019-05-02T18:59:32.017Z,97925.63
2019-05-02T19:02:02.166Z,97919.91
2019-05-02T19:04:38.108Z,97924.81
2019-05-02T19:07:02.675Z,97928.39
2019-05-02T19:09:33.127Z,97926.62
2019-05-02T19:12:06.556Z,97927.52
2019-05-02T19:14:32.751Z,97923.20
2019-05-02T19:17:03.530Z,97917.96
2019-05-02T19:19:32.961Z,97908.64
2019-05-02T19:22:07.403Z,97910.29
2019-05-02T19:24:36.385Z,97908.09
2019-05-02T19:27:02.525Z,97913.84
2019-05-02T19:29:31.898Z,97914.00
2019-05-02T19:32:00.402Z,97921.48
2019-05-02T19:34:28.809Z,97922.47
2019-05-02T19:36:57.962Z,97920.13
2019-05-02T19:39:27.300Z,97925.94
2019-05-02T19:41:55.555Z,97925.91
2019-05-02T19:44:29.073Z,97933.96
2019-05-02T19:46:53.879Z,97928.64
2019-05-02T19:49:25.227Z,97920.67
2019-05-02T19:51:56.395Z,97923.20
2019-05-02T19:54:22.211Z,97915.41
2019-05-02T19:56:52.390Z,97918.05
2019-05-02T19:59:24.708Z,97920.19
2019-05-02T20:01:52.163Z,97921.48
2019-05-02T20:04:22.181Z,97921.00
2019-05-02T20:06:50.566Z,97921.55
2019-05-02T20:09:18.842Z,97919.89
2019-05-02T20:11:47.154Z,97921.19
2019-05-02T20:14:15.404Z,97920.77
2019-05-02T20:16:46.689Z,97918.05
2019-05-02T20:19:17.351Z,97920.22
2019-05-02T20:21:49.048Z,97915.38
2019-05-02T20:24:19.490Z,97923.32
2019-05-02T20:26:52.375Z,97924.28
2019-05-02T20:29:17.306Z,97925.58
2019-05-02T20:31:45.600Z,97927.28
2019-05-02T20:34:13.844Z,97930.41
2019-05-02T20:36:42.547Z,97933.06
2019-05-02T20:39:11.872Z,97937.00
2019-05-02T20:41:41.929Z,97931.28
2019-05-02T20:44:12.179Z,97934.77
2019-05-02T20:46:42.070Z,97937.52
2019-05-02T20:49:12.618Z,97936.70
2019-05-02T20:51:42.330Z,97954.41
2019-05-02T20:54:12.462Z,97954.55
2019-05-02T20:56:42.482Z,97967.91
2019-05-02T20:59:12.551Z,97967.30
2019-05-02T21:01:42.714Z,97970.08
2019-05-02T21:04:12.071Z,97965.80
2019-05-02T21:06:47.937Z,97968.56
2019-05-02T21:09:21.752Z,97974.38
2019-05-02T21:11:54.443Z,97965.97
2019-05-02T21:14:22.752Z,97965.19
2019-05-02T21:16:51.020Z,97966.50
2019-05-02T21:19:19.330Z,97958.17
2019-05-02T21:21:47.588Z,97962.18
2019-05-02T21:24:15.886Z,97959.96
2019-05-02T21:26:44.157Z,97966.16
2019-05-02T21:29:12.872Z,97967.90
2019-05-02T21:31:42.559Z,97964.77
2019-05-02T21:34:11.703Z,97978.44
2019-05-02T21:36:40.177Z,97978.89
2019-05-02T21:39:12.938Z,97982.56
2019-05-02T21:41:42.373Z,97982.98
2019-05-02T21:44:12.959Z,97981.63
2019-05-02T21:46:42.359Z,97983.37
2019-05-02T21:49:12.063Z,97983.84
2019-05-02T21:51:42.609Z,97986.55
2019-05-02T21:54:24.754Z,97987.80
2019-05-02T21:56:57.445Z,97978.63
2019-05-02T21:59:25.703Z,97976.41
2019-05-02T22:01:55.671Z,97978.61
2019-05-02T22:04:23.955Z,97986.91
2019-05-02T22:06:52.448Z,97984.33
2019-05-02T22:09:22.823Z,97981.27
2019-05-02T22:11:52.094Z,97975.55
2019-05-02T22:14:22.363Z,97980.75
2019-05-02T22:16:52.662Z,97978.59
2019-05-02T22:19:20.573Z,97974.77
2019-05-02T22:21:48.883Z,97968.62
2019-05-02T22:24:17.153Z,97977.46
2019-05-02T22:26:45.419Z,97979.27
2019-05-02T22:29:13.713Z,97977.02
2019-05-02T22:31:43.003Z,97982.30
2019-05-02T22:34:12.898Z,97982.31
2019-05-02T22:36:42.123Z,97989.91
2019-05-02T22:39:12.630Z,97991.38
2019-05-02T22:41:41.955Z,97993.15
2019-05-02T22:44:12.497Z,97988.89
2019-05-02T22:46:43.323Z,97998.61
2019-05-02T22:49:14.559Z,98000.94
2019-05-02T22:51:42.865Z,98001.83
2019-05-02T22:54:23.411Z,98000.12
2019-05-02T22:56:42.647Z,98005.83
2019-05-02T22:59:10.997Z,98009.34
2019-05-02T23:01:39.300Z,98007.57
2019-05-02T23:04:07.563Z,98007.57
2019-05-02T23:06:35.873Z,98017.30
2019-05-02T23:09:06.058Z,98016.41
2019-05-02T23:11:34.384Z,98022.59
2019-05-02T23:14:02.620Z,98030.53
2019-05-02T23:16:32.274Z,98023.06
2019-05-02T23:19:02.636Z,98024.41
2019-05-02T23:21:32.549Z,98035.44
2019-05-02T23:24:02.533Z,98024.83
2019-05-02T23:26:38.255Z,98032.34
2019-05-02T23:29:08.160Z,98035.87
2019-05-02T23:31:36.413Z,98031.09
2019-05-02T23:34:04.733Z,98033.75
2019-05-02T23:36:33.065Z,98033.70
2019-05-02T23:39:01.954Z,98037.22
2019-05-02T23:41:30.371Z,98035.47
2019-05-02T23:43:58.671Z,98037.19
2019-05-02T23:46:26.937Z,98040.31
2019-05-02T23:48:55.338Z,98034.63
2019-05-02T23:51:23.603Z,98040.78
2019-05-02T23:53:52.751Z,98037.81
2019-05-02T23:56:22.083Z,98039.63
2019-05-02T23:58:51.988Z,98040.03
